Weather observations for the past three days for
Edinburg, Edinburg International Airport
Imperial (Metric)
Date Time (cdt) Wind (mph) Vis. (mi.) Weather Sky Cond. Temperature (ºF) Relative Humidity Wind Chill (°F) Heat Index (°F) Pressure Precipitation (in)
Air Dwpt 6 hour altimeter (in) sea level (mb) 1 hr 3 hr 6 hr
Max. Min.
06 00:35 S 13 7.00 Overcast OVC019 80.6 73.4 79% 85 29.72 0.0
06 00:15 S 13 G 23 7.00 Mostly Cloudy BKN019 BKN028 80.6 73.4 79% 85 29.72 0.0
05 23:55 S 15 8.00 Overcast OVC019 80.6 73.4 79% 85 29.73 0.0
05 23:35 S 16 8.00 Overcast BKN019 BKN024 OVC030 80.6 73.4 79% 85 29.73 0.0
05 23:15 SE 12 8.00 Overcast BKN021 BKN026 OVC031 80.6 73.4 79% 85 29.73 0.0
05 22:55 S 18 8.00 Overcast OVC019 80.6 73.4 79% 85 29.73 0.0
05 22:35 SE 14 G 20 9.00 Overcast BKN021 OVC029 80.6 73.4 79% 85 29.72 0.0
05 22:15 S 16 9.00 Overcast SCT021 OVC029 82.4 73.4 74% 88 29.71 0.0
05 21:55 SE 17 9.00 Overcast OVC028 82.4 73.4 74% 88 29.7 0.0
05 21:35 S 20 G 23 9.00 Overcast OVC027 82.4 73.4 74% 88 29.69 0.0
05 21:15 S 14 G 23 10.00 Overcast OVC025 82.4 73.4 74% 88 29.69 0.0
05 20:56 S 18 10.00 Overcast OVC025 82.4 73.4 74% 88 29.68 0.0
05 20:15 S 14 10.00 Mostly Cloudy BKN029 84.2 71.6 66% 90 29.66 0.0
05 19:55 S 18 G 24 10.00 A Few Clouds FEW031 84.2 71.6 66% 90 29.65 0.0
05 19:35 S 14 G 23 10.00 Fair CLR 86 71.6 62% 92 29.65 0.0
05 19:15 S 18 10.00 A Few Clouds FEW032 86 71.6 62% 92 29.64 0.0
05 18:55 SE 17 10.00 Partly Cloudy SCT034 87.8 71.6 95.5 87.8 59% 94 29.63 0.0
05 18:35 S 15 10.00 Partly Cloudy SCT036 87.8 71.6 59% 94 29.63 0.0
05 18:15 SE 21 10.00 Mostly Cloudy and Breezy BKN036 89.6 73.4 59% 98 29.63 0.0
05 17:55 SE 16 G 21 10.00 A Few Clouds FEW040 91.4 71.6 52% 99 29.63 0.0
05 17:35 SE 18 10.00 Fair CLR 91.4 71.6 52% 99 29.63 0.0
05 17:15 S 18 G 23 10.00 A Few Clouds FEW040 93.2 71.6 50% 101 29.63 0.0
05 16:55 S 16 G 21 10.00 Fair CLR 93.2 71.6 50% 101 29.64 0.0
05 16:35 SE 17 10.00 Partly Cloudy SCT041 93.2 71.6 50% 101 29.65 0.0
05 16:15 SE 16 G 23 10.00 Mostly Cloudy BKN041 93.2 71.6 50% 101 29.66 0.0
05 15:55 S 13 10.00 Mostly Cloudy BKN041 93.2 71.6 50% 101 29.66 0.0
05 15:35 S 14 G 24 10.00 Partly Cloudy SCT039 93.2 71.6 50% 101 29.67 0.0
05 15:15 SE 18 G 22 10.00 Mostly Cloudy BKN039 93.2 71.6 50% 101 29.67 0.0
05 14:55 S 15 G 23 10.00 Mostly Cloudy BKN039 93.2 71.6 50% 101 29.68 0.0
05 14:35 S 18 G 24 10.00 Mostly Cloudy BKN037 91.4 71.6 52% 99 29.68 0.0
05 14:15 SE 13 G 22 10.00 Overcast OVC037 91.4 71.6 52% 99 29.69 0.0
05 13:55 S 17 G 23 10.00 Mostly Cloudy BKN037 91.4 71.6 52% 99 29.7 0.0
05 13:35 S 15 G 23 10.00 Mostly Cloudy BKN037 91.4 71.6 52% 99 29.71 0.0
05 13:15 S 16 G 24 10.00 Mostly Cloudy BKN035 89.6 71.6 55% 96 29.72 0.0
05 12:55 S 17 10.00 Mostly Cloudy BKN035 89.6 71.6 90 77 55% 96 29.72 0.0
05 12:35 S 15 G 25 10.00 Overcast OVC033 89.6 71.6 55% 96 29.73 0.0
05 12:15 S 17 G 23 10.00 Overcast OVC033 87.8 71.6 59% 94 29.73 0.0
05 11:55 S 17 G 29 10.00 Mostly Cloudy BKN033 BKN038 86 71.6 62% 92 29.74 0.0
05 11:36 S 17 G 24 10.00 Overcast OVC032 86 71.6 62% 92 29.74 0.0
05 11:15 S 16 10.00 Overcast OVC027 84.2 71.6 66% 90 29.75 0.0
05 10:35 S 17 10.00 Mostly Cloudy BKN023 86 71.6 62% 92 29.75 0.0
05 10:15 S 20 G 25 10.00 Mostly Cloudy BKN021 82.4 71.6 70% 87 29.75 0.0
05 09:55 S 21 G 25 10.00 Overcast and Breezy OVC019 82.4 71.6 70% 87 29.76 0.0
05 09:35 S 17 G 24 10.00 Overcast OVC017 80.6 71.6 74% 85 29.75 0.0
05 09:15 S 18 G 22 10.00 Overcast OVC015 80.6 71.6 74% 85 29.75 0.0
05 08:55 S 14 G 18 10.00 Overcast OVC015 78.8 71.6 79% 82 29.75 0.0
05 08:35 S 14 G 22 10.00 Overcast OVC015 78.8 71.6 79% 82 29.75 0.0
05 08:15 S 14 10.00 Overcast OVC015 78.8 71.6 79% 82 29.75 0.0
05 07:56 S 13 10.00 Overcast OVC015 77 71.6 83% 78 29.75 0.0
05 07:35 S 14 G 20 10.00 Overcast OVC015 77 71.6 83% 78 29.74 0.0
05 07:15 S 12 10.00 Overcast OVC015 77 71.6 83% 78 29.75 0.0
05 06:55 S 15 10.00 Overcast OVC017 77 71.6 77.2 74.3 83% 78 29.74 0.0
05 06:35 S 13 10.00 Overcast OVC017 77 71.6 83% 78 29.74 0.0
05 06:15 S 13 10.00 Overcast OVC017 77 71.6 83% 78 29.74 0.0
05 05:55 S 12 10.00 Overcast OVC015 77 71.6 83% 78 29.75 0.0
05 05:35 S 12 10.00 Overcast OVC015 77 71.6 83% 78 29.75 0.0
05 05:15 S 9 10.00 Overcast OVC013 77 71.6 83% 78 29.75 0.0
05 04:55 S 12 10.00 Overcast OVC013 77 71.6 83% 78 29.75 0.0
05 04:35 S 12 10.00 Overcast OVC013 77 71.6 83% 78 29.75 0.0
05 04:15 S 12 G 16 10.00 Overcast BKN015 OVC022 77 71.6 83% 78 29.75 0.0
05 03:55 S 12 10.00 Overcast OVC017 77 71.6 83% 78 29.75 0.0
05 03:35 S 10 10.00 Overcast OVC017 75.2 71.6 89% 75 29.76 0.0
05 03:15 S 12 10.00 Overcast OVC017 75.2 71.6 89% 75 29.77 0.0
05 02:55 S 12 10.00 Overcast BKN013 OVC019 75.2 71.6 89% 75 29.77 0.0
05 02:35 S 12 10.00 Overcast OVC015 75.2 69.8 83% 75 29.79 0.0
05 02:15 S 12 10.00 Mostly Cloudy BKN015 BKN024 75.2 69.8 83% 75 29.78 0.0
05 01:55 S 14 10.00 Overcast FEW017 OVC023 75.2 69.8 83% 75 29.78 0.0
05 01:35 S 9 10.00 Overcast OVC022 75.2 69.8 83% 75 29.81 0.0
05 01:15 S 10 10.00 Overcast OVC024 75.2 69.8 83% 75 29.81 0.0
05 00:55 SE 9 10.00 Mostly Cloudy BKN024 75.2 69.8 82.8 73.8 83% 75 29.81 0.0
05 00:35 S 10 10.00 Mostly Cloudy BKN026 73.4 68 83% 29.82 0.0
05 00:15 S 9 10.00 Mostly Cloudy BKN028 75.2 68 78% 76 29.83 0.0
04 23:55 S 10 10.00 A Few Clouds FEW028 75.2 68 78% 76 29.83 0.0
04 23:35 SE 12 10.00 Mostly Cloudy BKN028 75.2 68 78% 76 29.84 0.0
04 23:15 S 12 10.00 Overcast OVC026 75.2 68 78% 76 29.83 0.0
04 22:55 SE 10 10.00 Overcast OVC026 75.2 68 78% 76 29.83 0.0
04 22:35 S 12 10.00 Overcast OVC026 75.2 68 78% 76 29.83 0.0
04 22:15 SE 10 10.00 Partly Cloudy SCT026 75.2 68 78% 76 29.83 0.0
04 21:55 S 12 10.00 Mostly Cloudy BKN024 75.2 68 78% 76 29.83 0.0
04 21:35 S 13 10.00 Mostly Cloudy BKN026 77 68 74% 79 29.82 0.0
04 21:16 SE 12 10.00 Partly Cloudy SCT026 77 68 74% 79 29.82 0.0
04 20:56 S 13 10.00 A Few Clouds FEW029 77 66.2 69% 79 29.81 0.0
04 20:35 SE 18 10.00 Overcast OVC029 78.8 66.2 65% 81 29.8 0.0
04 20:15 SE 14 10.00 Overcast OVC031 78.8 66.2 65% 81 29.8 0.0
04 19:55 SE 16 G 21 10.00 Overcast OVC031 80.6 66.2 62% 83 29.8 0.0
04 19:35 SE 18 10.00 Overcast OVC033 80.6 66.2 62% 83 29.8 0.0
04 19:16 SE 17 10.00 Overcast OVC035 82.4 66.2 58% 85 29.8 0.0
04 18:55 SE 15 10.00 Partly Cloudy SCT037 82.4 66.2 87.6 80.8 58% 85 29.81 0.0
04 18:35 S 12 10.00 A Few Clouds FEW037 FEW050 82.4 66.2 58% 85 29.81 0.0
04 18:15 S 15 10.00 Partly Cloudy FEW037 SCT050 84.2 66.2 55% 87 29.81 0.0
04 17:55 S 14 G 17 10.00 Mostly Cloudy FEW039 SCT046 BKN055 84.2 66.2 55% 87 29.81 0.0
04 17:35 S 14 G 18 10.00 Mostly Cloudy SCT042 BKN055 84.2 66.2 55% 87 29.82 0.0
04 17:15 S 15 10.00 Mostly Cloudy FEW039 BKN055 86 66.2 52% 88 29.81 0.0
04 16:55 SE 10 G 20 10.00 Mostly Cloudy FEW040 BKN055 86 66.2 52% 88 29.82 0.0
04 16:35 S 13 10.00 Partly Cloudy FEW040 SCT055 86 66.2 52% 88 29.82 0.0
04 16:15 S 15 G 20 10.00 Overcast OVC055 86 66.2 52% 88 29.83 0.0
04 15:55 S 16 G 21 10.00 Overcast FEW039 OVC055 86 66.2 52% 88 29.84 0.0
04 15:35 SE 15 G 18 10.00 Overcast FEW037 OVC055 84.2 66.2 55% 87 29.85 0.0
04 15:15 S 16 G 21 10.00 Overcast OVC050 84.2 66.2 55% 87 29.86 0.0
04 14:55 S 10 10.00 Overcast FEW042 OVC050 84.2 66.2 55% 87 29.87 0.0
04 14:35 S 16 G 22 10.00 Overcast SCT036 BKN047 OVC055 82.4 66.2 58% 85 29.88 0.0
04 14:15 S 15 10.00 Overcast SCT038 OVC050 82.4 66.2 58% 85 29.88 0.0
04 13:55 S 14 G 18 10.00 Overcast BKN039 OVC050 82.4 66.2 58% 85 29.88 0.0
04 13:35 S 13 10.00 Overcast BKN039 OVC049 82.4 66.2 58% 85 29.89 0.0
04 13:15 S 14 10.00 Overcast OVC039 80.6 64.4 58% 82 29.89 0.0
04 12:55 S 13 10.00 Overcast OVC039 80.6 64.4 82 64 58% 82 29.9 0.0
04 12:36 S 15 10.00 Overcast OVC037 80.6 64.4 58% 82 29.91 0.0
04 12:15 S 14 G 20 10.00 Overcast OVC037 80.6 64.4 58% 82 29.92 0.0
04 11:55 S 15 G 18 10.00 Overcast BKN035 OVC043 80.6 64.4 58% 82 29.92 0.0
04 11:36 SE 15 G 20 10.00 Overcast BKN035 OVC042 80.6 64.4 58% 82 29.92 0.0
04 11:15 SE 16 G 21 10.00 Overcast BKN033 BKN039 OVC046 80.6 64.4 58% 82 29.92 0.0
04 10:55 SE 15 10.00 Overcast BKN033 OVC042 80.6 64.4 58% 82 29.92 0.0
04 10:35 SE 16 G 20 10.00 Overcast SCT029 BKN036 OVC043 80.6 64.4 58% 82 29.93 0.0
04 10:15 S 17 G 22 10.00 Overcast BKN027 BKN037 OVC046 80.6 66.2 62% 83 29.93 0.0
04 09:55 S 16 G 23 10.00 Mostly Cloudy SCT023 BKN044 80.6 66.2 62% 83 29.94 0.0
04 09:35 SE 16 G 22 10.00 Mostly Cloudy SCT023 BKN042 78.8 66.2 65% 81 29.94 0.0
04 09:15 SE 13 10.00 Mostly Cloudy FEW023 BKN045 78.8 66.2 65% 81 29.94 0.0
04 08:55 SE 14 10.00 Mostly Cloudy BKN045 75.2 66.2 74% 77 29.94 0.0
04 08:35 SE 12 10.00 Partly Cloudy SCT045 75.2 66.2 74% 77 29.95 0.0
04 08:15 SE 9 10.00 Partly Cloudy SCT045 71.6 64.4 78% 29.95 0.0
04 07:55 SE 8 10.00 Mostly Cloudy FEW023 FEW031 BKN047 69.8 64.4 83% 29.95 0.0
04 07:35 SE 7 10.00 Mostly Cloudy BKN050 BKN055 66.2 64.4 94% 29.94 0.0
04 06:55 SE 3 10.00 Fair CLR 64.4 60.8 65.1 63.5 88% 29.94 0.0
04 06:35 E 3 10.00 Fair CLR 64.4 62.6 94% 29.94 0.0
04 06:15 Calm 10.00 Fair CLR 64.4 60.8 88% 29.94 0.0
04 05:55 SE 3 10.00 Fair CLR 64.4 60.8 88% 29.94 0.0
04 05:35 SE 3 10.00 Fair CLR 64.4 60.8 88% 29.94 0.0
04 05:15 SE 6 10.00 Fair CLR 64.4 60.8 88% 29.94 0.0
04 04:55 SE 6 10.00 Fair CLR 64.4 60.8 88% 29.95 0.0
04 04:35 E 6 10.00 A Few Clouds FEW026 64.4 60.8 88% 29.96 0.0
04 04:15 SE 5 10.00 Partly Cloudy SCT026 64.4 60.8 88% 29.96 0.0
04 03:55 SE 6 10.00 Fair CLR 64.4 60.8 88% 29.96 0.0
04 03:35 SE 6 10.00 Fair CLR 64.4 60.8 88% 29.96 0.0
04 03:15 SE 3 10.00 Fair CLR 64.4 60.8 88% 29.98 0.0
04 02:55 SE 3 10.00 Fair CLR 64.4 59 83% 29.98 0.0
04 02:35 SE 3 10.00 Fair CLR 64.4 59 83% 29.99 0.0
04 02:15 SE 3 10.00 Fair CLR 64.4 59 83% 30 0.0
04 01:55 SE 3 10.00 Fair CLR 64.4 59 83% 30 0.0
04 01:35 SE 3 10.00 Fair CLR 64.4 59 83% 30 0.0
04 01:07 SE 5 10.00 Fair CLR 64.4 59 83% 30.02 0.0
04 00:55 SE 5 10.00 Fair CLR 64.4 59 79.3 64.2 83% 30.02 0.0
04 00:35 SE 6 10.00 Fair CLR 64.4 59 83% 30.03 0.0
04 00:15 SE 3 10.00 Fair CLR 64.4 59 83% 30.04 0.0
03 23:55 SE 6 10.00 Fair CLR 64.4 59 83% 30.04 0.0
03 23:35 SE 3 10.00 Fair CLR 66.2 59 78% 30.05 0.0
03 23:15 SE 5 10.00 Fair CLR 66.2 59 78% 30.06 0.0
03 22:55 SE 5 10.00 Fair CLR 68 59 73% 30.06 0.0
03 22:36 E 6 10.00 Fair CLR 69.8 59 69% 30.06 0.0
03 22:15 SE 8 10.00 Fair CLR 69.8 57.2 64% 30.06 0.0
03 21:55 SE 7 10.00 Fair CLR 69.8 57.2 64% 30.05 0.0
03 21:35 SE 7 10.00 Fair CLR 69.8 55.4 60% 30.05 0.0
03 21:16 SE 9 10.00 Fair CLR 71.6 55.4 57% 30.04 0.0
03 20:55 E 9 10.00 Fair CLR 71.6 55.4 57% 30.03 0.0
03 20:35 E 10 10.00 Fair CLR 73.4 55.4 53% 30.03 0.0
03 20:15 E 14 G 20 10.00 Fair CLR 73.4 55.4 53% 30.03 0.0
03 19:55 E 14 10.00 Fair CLR 75.2 55.4 50% 78 30.03 0.0
03 19:36 E 14 10.00 Fair CLR 77 55.4 47% 79 30.02 0.0
03 19:16 E 15 10.00 Fair CLR 77 55.4 47% 79 30.02 0.0
03 18:55 E 15 10.00 Fair CLR 78.8 55.4 84.4 79.2 45% 79 30.02 0.0
03 18:35 SE 13 10.00 Fair CLR 78.8 55.4 45% 79 30.02 0.0
03 18:15 E 15 10.00 Fair CLR 80.6 55.4 42% 81 30.02 0.0
03 17:55 E 14 10.00 A Few Clouds FEW060 80.6 55.4 42% 81 30.02 0.0
03 17:35 SE 15 G 21 10.00 Fair CLR 82.4 55.4 40% 82 30.03 0.0
03 17:15 SE 15 10.00 Partly Cloudy SCT060 82.4 55.4 40% 82 30.03 0.0
03 16:55 E 5 G 17 10.00 Overcast OVC060 80.6 55.4 42% 81 30.05 0.0
03 16:35 E 12 10.00 Mostly Cloudy BKN060 82.4 53.6 37% 81 30.05 0.0
03 16:15 E 8 10.00 Mostly Cloudy BKN060 82.4 53.6 37% 81 30.06 0.0
03 15:55 E 13 G 17 10.00 Mostly Cloudy BKN060 84.2 53.6 35% 83 30.06 0.0
03 15:35 SE 10 G 18 10.00 Mostly Cloudy BKN060 82.4 53.6 37% 81 30.07 0.0
03 15:15 E 9 10.00 A Few Clouds FEW060 82.4 51.8 35% 81 30.09 0.0
03 14:55 Vrbl 6 10.00 Partly Cloudy SCT060 82.4 51.8 35% 81 30.1 0.0
03 14:35 S 8 G 22 9.00 Partly Cloudy SCT060 84.2 51.8 33% 82 30.11 0.0
03 14:15 SE 9 G 18 10.00 Fair CLR 82.4 51.8 35% 81 30.11 0.0
03 13:55 SE 13 G 20 10.00 A Few Clouds FEW090 84.2 51.8 33% 82 30.13 0.0
03 13:35 SE 7 G 16 10.00 Mostly Cloudy FEW060 BKN090 82.4 53.6 37% 81 30.14 0.0
03 13:15 E 9 G 16 10.00 Mostly Cloudy SCT060 BKN085 80.6 51.8 37% 80 30.15 0.0
03 12:55 E 6 10.00 Partly Cloudy SCT050 80.6 51.8 81.9 56.3 37% 80 30.16 0.0
03 12:35 Vrbl 7 10.00 A Few Clouds FEW050 80.6 53.6 39% 80 30.17 0.0
03 12:15 E 9 10.00 Fair CLR 80.6 53.6 39% 80 30.17 0.0
03 11:55 SE 10 G 17 10.00 A Few Clouds FEW049 78.8 53.6 42% 79 30.18 0.0
03 11:35 E 13 G 17 10.00 A Few Clouds FEW047 FEW055 78.8 55.4 45% 79 30.19 0.0
03 11:15 E 7 10.00 Partly Cloudy SCT045 SCT055 78.8 55.4 45% 79 30.19 0.0
03 10:55 E 8 10.00 Mostly Cloudy BKN045 77 55.4 47% 79 30.19 0.0
03 10:35 Calm 10.00 Fair CLR 75.2 55.4 50% 78 30.19 0.0
03 10:15 N 3 10.00 Fair CLR 75.2 55.4 50% 78 30.19 0.0
03 09:55 Vrbl 5 10.00 Fair CLR 75.2 55.4 50% 78 30.18 0.0
03 09:35 NE 8 10.00 Fair CLR 73.4 55.4 53% 30.17 0.0
03 09:15 N 7 10.00 Partly Cloudy SCT095 71.6 53.6 53% 30.17 0.0
03 08:55 N 6 10.00 Mostly Cloudy BKN095 68 55.4 64% 30.17 0.0
03 08:35 N 6 10.00 A Few Clouds FEW095 66.2 55.4 68% 30.17 0.0
03 08:15 NW 5 10.00 Fair CLR 62.6 55.4 77% 30.17 0.0
03 07:55 N 5 10.00 Fair CLR 59 55.4 88% 30.16 0.0
03 07:35 N 3 10.00 A Few Clouds FEW100 59 53.6 82% 30.15 0.0
03 07:15 NW 5 10.00 Mostly Cloudy BKN100 57.2 53.6 88% 30.15 0.0
03 06:55 NW 5 10.00 Mostly Cloudy BKN100 57.2 53.6 61.5 56.1 88% 30.14 0.0
03 06:35 NW 3 10.00 Partly Cloudy SCT100 57.2 53.6 88% 30.14 0.0
03 06:15 Calm 10.00 A Few Clouds FEW110 59 53.6 82% 30.14 0.0
03 05:35 N 3 10.00 Mostly Cloudy BKN110 57.2 53.6 88% 30.13 0.0
03 05:15 N 3 10.00 Mostly Cloudy BKN110 57.2 53.6 88% 30.13 0.0
03 04:56 N 3 10.00 A Few Clouds FEW110 57.2 53.6 88% 30.14 0.0
03 04:35 N 3 10.00 Partly Cloudy SCT110 59 53.6 82% 30.14 0.0
03 04:15 Calm 10.00 Partly Cloudy SCT100 59 53.6 82% 30.14 0.0
03 03:55 Calm 10.00 Partly Cloudy SCT100 59 53.6 82% 30.14 0.0
03 03:35 NW 3 10.00 Partly Cloudy SCT110 59 53.6 82% 30.14 0.0
03 03:15 Calm 10.00 Mostly Cloudy BKN110 60.8 53.6 77% 30.14 0.0
03 02:55 W 3 10.00 Overcast OVC110 60.8 53.6 77% 30.15 0.0
03 02:35 W 3 10.00 Mostly Cloudy BKN110 59 53.6 82% 30.15 0.0
03 02:15 NW 3 10.00 Mostly Cloudy BKN110 59 53.6 82% 30.15 0.0
03 01:55 NW 3 10.00 Fair CLR 59 53.6 82% 30.15 0.0
03 01:35 Calm 10.00 Fair CLR 60.8 53.6 77% 30.16 0.0
03 01:15 W 3 10.00 Fair CLR 60.8 53.6 77% 30.16 0.0
03 00:55 W 3 10.00 Fair CLR 60.8 53.6 73.6 61.5 77% 30.17 0.0
Date Time (cdt) Wind (mph) Vis. (mi.) Weather Sky Cond. Air Dwpt Max. Min. Relative Humidity Wind Chill (°F) Heat Index (°F) altimeter (in) sea level (mb) 1 hr 3 hr 6 hr
6 hour
Temperature (ºF) Pressure Precipitation (in)